Federico Garcia Lorca Airport


Codes: LEGR/GRX
Name: Federico Garcia Lorca Airport
City: Granada
Country: Spain
Elevation: 1860 ft.
Wikipedia:

Photos at Federico Garcia Lorca Airport


   Photos courtesy of SpottingLog. You can add your own sightings and photos by signing up for a free trial today.



No photos found.

Weather at Federico Garcia Lorca Airport


Time (UTC)DescriptionTempratureWindCloud coverageVisibilityPressureHumidity
23-May-2024 21:00Scattered Clouds25°C4 mph, SW33%10000m1014hPa31%
24-May-2024 00:00Broken Clouds20°C4 mph, S61%10000m1014hPa45%
24-May-2024 03:00Broken Clouds15°C0 mph, S79%10000m1015hPa61%
24-May-2024 06:00Broken Clouds16°C2 mph, W82%10000m1015hPa62%
24-May-2024 09:00Scattered Clouds22°C2 mph, W43%10000m1015hPa43%
24-May-2024 12:00Few Clouds27°C0 mph, SW22%10000m1014hPa29%
24-May-2024 15:00Clear Sky30°C7 mph, NW1%10000m1012hPa24%
24-May-2024 18:00Clear Sky27°C11 mph, NW1%10000m1013hPa28%
24-May-2024 21:00Clear Sky21°C2 mph, SW0%10000m1016hPa44%
25-May-2024 00:00Clear Sky18°C2 mph, SW1%10000m1017hPa54%
25-May-2024 03:00Clear Sky16°C0 mph, NW7%10000m1017hPa61%
25-May-2024 06:00Clear Sky17°C2 mph, N5%10000m1018hPa63%
25-May-2024 09:00Clear Sky24°C2 mph, NW1%10000m1018hPa39%
25-May-2024 12:00Clear Sky29°C2 mph, NW1%10000m1016hPa27%
25-May-2024 15:00Clear Sky32°C7 mph, NW1%10000m1014hPa23%
25-May-2024 18:00Clear Sky30°C7 mph, NW5%10000m1015hPa30%
25-May-2024 21:00Broken Clouds23°C2 mph, NW61%10000m1017hPa44%
26-May-2024 00:00Broken Clouds21°C2 mph, NW64%10000m1017hPa44%
26-May-2024 03:00Broken Clouds19°C2 mph, W73%10000m1017hPa49%
26-May-2024 06:00Broken Clouds20°C2 mph, N80%10000m1018hPa53%
26-May-2024 09:00Overcast Clouds25°C4 mph, S95%10000m1018hPa39%
26-May-2024 12:00Overcast Clouds31°C7 mph, S98%10000m1016hPa22%
26-May-2024 15:00Scattered Clouds32°C11 mph, S39%10000m1015hPa24%
26-May-2024 18:00Few Clouds30°C7 mph, SW22%10000m1015hPa30%
26-May-2024 21:00Broken Clouds24°C2 mph, SW73%10000m1017hPa41%
27-May-2024 00:00Broken Clouds21°C2 mph, S71%10000m1018hPa51%
27-May-2024 03:00Clear Sky20°C2 mph, NW0%10000m1017hPa51%
27-May-2024 06:00Clear Sky20°C2 mph, NW0%10000m1018hPa56%
27-May-2024 09:00Clear Sky26°C2 mph, W7%10000m1017hPa36%
27-May-2024 12:00Clear Sky31°C4 mph, SW6%10000m1015hPa26%
27-May-2024 15:00Clear Sky33°C9 mph, W6%10000m1014hPa24%
27-May-2024 18:00Few Clouds31°C7 mph, W15%10000m1015hPa30%
27-May-2024 21:00Clear Sky24°C2 mph, NW6%10000m1017hPa43%
28-May-2024 00:00Clear Sky22°C2 mph, SW3%10000m1017hPa51%
28-May-2024 03:00Clear Sky20°C2 mph, S1%10000m1017hPa57%
28-May-2024 06:00Clear Sky20°C2 mph, S1%10000m1018hPa61%
28-May-2024 09:00Clear Sky26°C4 mph, S8%10000m1017hPa40%
28-May-2024 12:00Scattered Clouds30°C4 mph, SW25%10000m1016hPa30%
28-May-2024 15:00Broken Clouds33°C7 mph, SW59%10000m1014hPa25%
28-May-2024 18:00Broken Clouds29°C9 mph, SW77%10000m1015hPa42%